createdAt,value
2022-07-27T00:00:56.535Z,15.19
2022-07-27T00:01:56.471Z,15.16
2022-07-27T00:02:56.444Z,15.16
2022-07-27T00:03:56.542Z,15.12
2022-07-27T00:04:56.445Z,15.11
2022-07-27T00:05:56.412Z,15.07
2022-07-27T00:06:56.420Z,15.05
2022-07-27T00:07:56.409Z,15.05
2022-07-27T00:08:56.391Z,15.01
2022-07-27T00:09:56.396Z,15.00
2022-07-27T00:10:56.352Z,14.98
2022-07-27T00:11:56.364Z,14.97
2022-07-27T00:12:56.352Z,14.95
2022-07-27T00:13:56.347Z,14.95
2022-07-27T00:14:56.378Z,14.95
2022-07-27T00:15:56.343Z,14.94
2022-07-27T00:16:56.318Z,14.95
2022-07-27T00:17:56.306Z,14.95
2022-07-27T00:18:56.307Z,14.95
2022-07-27T00:19:56.261Z,14.95
2022-07-27T00:20:56.285Z,14.91
2022-07-27T00:21:56.240Z,14.93
2022-07-27T00:22:56.219Z,14.87
2022-07-27T00:23:56.265Z,14.86
2022-07-27T00:24:56.203Z,14.83
2022-07-27T00:25:56.181Z,14.82
2022-07-27T00:26:56.194Z,14.80
2022-07-27T00:27:56.175Z,14.79
2022-07-27T00:28:56.158Z,14.75
2022-07-27T00:29:56.184Z,14.72
2022-07-27T00:30:56.271Z,14.69
2022-07-27T00:31:56.170Z,14.71
2022-07-27T00:32:56.116Z,14.71
2022-07-27T00:33:56.132Z,14.69
2022-07-27T00:34:56.120Z,14.66
2022-07-27T00:35:56.077Z,14.64
2022-07-27T00:36:56.056Z,14.63
2022-07-27T00:37:56.091Z,14.64
2022-07-27T00:38:56.044Z,14.64
2022-07-27T00:39:56.066Z,14.66
2022-07-27T00:40:56.031Z,14.66
2022-07-27T00:41:56.020Z,14.64
2022-07-27T00:42:55.997Z,14.66
2022-07-27T00:43:55.988Z,14.64
2022-07-27T00:44:55.972Z,14.64
2022-07-27T00:45:55.972Z,14.61
2022-07-27T00:46:56.018Z,14.59
2022-07-27T00:47:55.951Z,14.60
2022-07-27T00:48:55.977Z,14.59
2022-07-27T00:49:55.952Z,14.56
2022-07-27T00:50:55.914Z,14.56
2022-07-27T00:51:55.884Z,14.49
2022-07-27T00:52:55.902Z,14.49
2022-07-27T00:53:55.871Z,14.49
2022-07-27T00:54:55.859Z,14.48
2022-07-27T00:55:55.875Z,14.48
2022-07-27T00:56:55.848Z,14.46
2022-07-27T00:57:58.791Z,14.46
2022-07-27T00:58:55.832Z,14.45
2022-07-27T00:59:55.800Z,14.45
2022-07-27T01:00:55.841Z,14.46
2022-07-27T01:01:55.886Z,14.46
2022-07-27T01:02:57.466Z,14.46
2022-07-27T01:03:56.350Z,14.46
2022-07-27T01:04:57.021Z,14.44
2022-07-27T01:05:55.773Z,14.45
2022-07-27T01:06:55.738Z,14.44
2022-07-27T01:07:55.705Z,14.44
2022-07-27T01:08:55.714Z,14.44
2022-07-27T01:09:55.695Z,14.42
2022-07-27T01:10:55.676Z,14.42
2022-07-27T01:11:55.682Z,14.42
2022-07-27T01:12:55.642Z,14.41
2022-07-27T01:13:55.628Z,14.42
2022-07-27T01:14:55.629Z,14.42
2022-07-27T01:15:55.709Z,14.39
2022-07-27T01:16:55.624Z,14.38
2022-07-27T01:17:55.622Z,14.36
2022-07-27T01:18:55.576Z,14.36
2022-07-27T01:19:55.578Z,14.35
2022-07-27T01:20:55.562Z,14.35
2022-07-27T01:21:55.573Z,14.31
2022-07-27T01:22:55.531Z,14.34
2022-07-27T01:23:55.527Z,14.31
2022-07-27T01:24:55.515Z,14.30
2022-07-27T01:25:55.497Z,14.30
2022-07-27T01:26:55.504Z,14.31
2022-07-27T01:27:55.478Z,14.31
2022-07-27T01:28:55.461Z,14.31
2022-07-27T01:29:55.467Z,14.29
2022-07-27T01:30:55.540Z,14.29
2022-07-27T01:31:55.450Z,14.27
2022-07-27T01:32:55.452Z,14.26
2022-07-27T01:33:55.409Z,14.24
2022-07-27T01:34:55.413Z,14.21
2022-07-27T01:35:55.397Z,14.21
2022-07-27T01:36:55.395Z,14.19
2022-07-27T01:37:55.373Z,14.16
2022-07-27T01:38:55.383Z,14.13
2022-07-27T01:39:55.344Z,14.12
2022-07-27T01:40:55.336Z,14.11
2022-07-27T01:41:55.340Z,14.09
2022-07-27T01:42:55.354Z,14.09
2022-07-27T01:43:55.288Z,14.08
2022-07-27T01:44:55.291Z,14.05
2022-07-27T01:45:55.289Z,14.04
2022-07-27T01:46:55.403Z,14.02
2022-07-27T01:47:55.265Z,14.04
2022-07-27T01:48:55.291Z,14.02
2022-07-27T01:49:55.222Z,13.99
2022-07-27T01:50:55.230Z,14.02
2022-07-27T01:51:55.201Z,14.01
2022-07-27T01:52:55.221Z,13.98
2022-07-27T01:53:55.199Z,13.98
2022-07-27T01:54:55.168Z,13.99
2022-07-27T01:55:55.150Z,13.98
2022-07-27T01:56:55.157Z,13.96
2022-07-27T01:57:55.158Z,13.96
2022-07-27T01:58:55.151Z,13.94
2022-07-27T01:59:55.121Z,13.91
2022-07-27T02:00:55.103Z,13.88
2022-07-27T02:01:55.148Z,13.87
2022-07-27T02:02:55.071Z,13.87
2022-07-27T02:03:55.078Z,13.84
2022-07-27T02:04:55.120Z,13.84
2022-07-27T02:05:55.078Z,13.83
2022-07-27T02:06:55.058Z,13.80
2022-07-27T02:07:55.009Z,13.80
2022-07-27T02:08:55.041Z,13.80
2022-07-27T02:09:55.004Z,13.75
2022-07-27T02:10:54.991Z,13.73
2022-07-27T02:11:54.965Z,13.69
2022-07-27T02:12:54.996Z,13.65
2022-07-27T02:13:54.983Z,13.63
2022-07-27T02:14:54.955Z,13.63
2022-07-27T02:15:55.052Z,13.61
2022-07-27T02:16:54.947Z,13.59
2022-07-27T02:17:54.909Z,13.57
2022-07-27T02:18:54.924Z,13.55
2022-07-27T02:19:54.897Z,13.53
2022-07-27T02:20:54.867Z,13.51
2022-07-27T02:21:54.870Z,13.51
2022-07-27T02:22:54.854Z,13.47
2022-07-27T02:23:54.854Z,13.47
2022-07-27T02:24:54.866Z,13.44
2022-07-27T02:25:54.807Z,13.44
2022-07-27T02:26:54.826Z,13.44
2022-07-27T02:27:54.853Z,13.41
2022-07-27T02:28:54.793Z,13.39
2022-07-27T02:29:54.806Z,13.38
2022-07-27T02:30:54.750Z,13.36
2022-07-27T02:31:54.734Z,13.36
2022-07-27T02:32:54.829Z,13.36
2022-07-27T02:33:54.754Z,13.36
2022-07-27T02:34:54.718Z,13.35
2022-07-27T02:35:54.698Z,13.29
2022-07-27T02:36:54.704Z,13.29
2022-07-27T02:37:54.683Z,13.28
2022-07-27T02:38:54.692Z,13.27
2022-07-27T02:39:54.656Z,13.27
2022-07-27T02:40:54.638Z,13.24
2022-07-27T02:41:54.624Z,13.21
2022-07-27T02:42:54.638Z,13.21
2022-07-27T02:43:54.638Z,13.19
2022-07-27T02:44:54.590Z,13.17
2022-07-27T02:45:54.660Z,13.13
2022-07-27T02:46:54.584Z,13.10
2022-07-27T02:47:54.556Z,13.09
2022-07-27T02:48:54.654Z,13.07
2022-07-27T02:49:54.575Z,13.07
2022-07-27T02:50:54.536Z,13.06
2022-07-27T02:51:54.544Z,13.06
2022-07-27T02:52:54.500Z,13.04
2022-07-27T02:53:54.519Z,13.06
2022-07-27T02:54:54.480Z,13.03
2022-07-27T02:55:54.504Z,13.03
2022-07-27T02:56:54.497Z,12.99
2022-07-27T02:57:54.449Z,12.99
2022-07-27T02:58:54.486Z,12.98
2022-07-27T02:59:54.426Z,12.99
2022-07-27T03:00:58.424Z,12.98
2022-07-27T03:01:54.448Z,12.95
2022-07-27T03:02:54.417Z,12.94
2022-07-27T03:03:54.477Z,12.91
2022-07-27T03:04:54.408Z,12.87
2022-07-27T03:05:54.364Z,12.85
2022-07-27T03:06:54.371Z,12.80
2022-07-27T03:07:54.341Z,12.77
2022-07-27T03:08:54.340Z,12.74
2022-07-27T03:09:54.325Z,12.71
2022-07-27T03:10:54.306Z,12.71
2022-07-27T03:11:54.348Z,12.71
2022-07-27T03:12:54.294Z,12.73
2022-07-27T03:13:54.320Z,12.71
2022-07-27T03:14:54.256Z,12.70
2022-07-27T03:15:54.295Z,12.70
2022-07-27T03:16:54.299Z,12.71
2022-07-27T03:17:54.222Z,12.71
2022-07-27T03:18:54.243Z,12.70
2022-07-27T03:19:54.212Z,12.69
2022-07-27T03:20:54.320Z,12.67
2022-07-27T03:21:54.177Z,12.69
2022-07-27T03:22:54.235Z,12.66
2022-07-27T03:23:54.187Z,12.62
2022-07-27T03:24:54.148Z,12.58
2022-07-27T03:25:54.136Z,12.54
2022-07-27T03:26:54.123Z,12.54
2022-07-27T03:27:54.139Z,12.52
2022-07-27T03:28:54.144Z,12.54
2022-07-27T03:29:54.089Z,12.54
2022-07-27T03:30:54.106Z,12.55
2022-07-27T03:31:54.070Z,12.55
2022-07-27T03:32:54.074Z,12.55
2022-07-27T03:33:54.084Z,12.56
2022-07-27T03:34:54.057Z,12.54
2022-07-27T03:35:54.023Z,12.52
2022-07-27T03:36:54.014Z,12.54
2022-07-27T03:37:54.046Z,12.52
2022-07-27T03:38:54.019Z,12.52
2022-07-27T03:39:53.985Z,12.52
2022-07-27T03:40:53.984Z,12.52
2022-07-27T03:41:53.998Z,12.54
2022-07-27T03:42:54.015Z,12.52
2022-07-27T03:43:53.968Z,12.51
2022-07-27T03:44:53.924Z,12.52
2022-07-27T03:45:53.960Z,12.51
2022-07-27T03:46:53.906Z,12.51
2022-07-27T03:47:53.895Z,12.51
2022-07-27T03:48:53.994Z,12.54
2022-07-27T03:49:53.880Z,12.54
2022-07-27T03:50:53.879Z,12.54
2022-07-27T03:51:53.853Z,12.54
2022-07-27T03:52:53.845Z,12.55
2022-07-27T03:53:53.854Z,12.56
2022-07-27T03:54:53.817Z,12.56
2022-07-27T03:55:53.820Z,12.58
2022-07-27T03:56:53.813Z,12.59
2022-07-27T03:57:53.827Z,12.61
2022-07-27T03:58:53.810Z,12.61
2022-07-27T03:59:53.774Z,12.63
2022-07-27T04:00:53.805Z,12.63
2022-07-27T04:01:53.738Z,12.66
2022-07-27T04:02:53.801Z,12.69
2022-07-27T04:03:53.748Z,12.67
2022-07-27T04:04:53.727Z,12.66
2022-07-27T04:05:53.703Z,12.63
2022-07-27T04:06:53.685Z,12.63
2022-07-27T04:07:54.643Z,12.63
2022-07-27T04:08:59.344Z,12.67
2022-07-27T04:09:53.695Z,12.69
2022-07-27T04:10:53.646Z,12.70
2022-07-27T04:11:53.635Z,12.71
2022-07-27T04:12:53.619Z,12.73
2022-07-27T04:13:53.642Z,12.74
2022-07-27T04:14:53.596Z,12.74
2022-07-27T04:15:53.592Z,12.77
2022-07-27T04:16:53.607Z,12.77
2022-07-27T04:17:57.087Z,12.79
2022-07-27T04:18:53.576Z,12.81
2022-07-27T04:19:53.561Z,12.84
2022-07-27T04:20:53.543Z,12.85
2022-07-27T04:21:53.520Z,12.88
2022-07-27T04:22:53.520Z,12.91
2022-07-27T04:23:53.528Z,12.92
2022-07-27T04:24:53.497Z,12.95
2022-07-27T04:25:53.497Z,12.96
2022-07-27T04:26:53.481Z,12.98
2022-07-27T04:27:53.455Z,13.01
2022-07-27T04:28:53.482Z,13.04
2022-07-27T04:29:53.446Z,13.07
2022-07-27T04:30:53.473Z,13.10
2022-07-27T04:31:53.421Z,13.13
2022-07-27T04:32:53.412Z,13.13
2022-07-27T04:33:53.435Z,13.17
2022-07-27T04:34:53.395Z,13.22
2022-07-27T04:35:53.379Z,13.24
2022-07-27T04:36:53.358Z,13.25
2022-07-27T04:37:59.231Z,13.28
2022-07-27T04:38:53.349Z,13.29
2022-07-27T04:39:53.380Z,13.35
2022-07-27T04:40:58.016Z,13.36
2022-07-27T04:41:53.333Z,13.35
2022-07-27T04:42:53.300Z,13.38
2022-07-27T04:43:53.278Z,13.39
2022-07-27T04:44:53.296Z,13.44
2022-07-27T04:45:53.328Z,13.44
2022-07-27T04:46:53.248Z,13.47
2022-07-27T04:47:53.254Z,13.48
2022-07-27T04:48:53.284Z,13.53
2022-07-27T04:49:53.252Z,13.54
2022-07-27T04:50:53.241Z,13.55
2022-07-27T04:51:53.205Z,13.57
2022-07-27T04:52:53.188Z,13.57
2022-07-27T04:53:58.431Z,13.53
2022-07-27T04:54:53.174Z,13.50
2022-07-27T04:55:53.185Z,13.48
2022-07-27T04:56:53.156Z,13.50
2022-07-27T04:57:53.144Z,13.51
2022-07-27T04:58:53.132Z,13.53
2022-07-27T04:59:53.132Z,13.51
2022-07-27T05:00:53.161Z,13.53
2022-07-27T05:01:53.137Z,13.55
2022-07-27T05:02:53.087Z,13.61
2022-07-27T05:03:53.157Z,13.63
2022-07-27T05:04:53.065Z,13.65
2022-07-27T05:05:53.060Z,13.68
2022-07-27T05:06:53.031Z,13.68
2022-07-27T05:07:53.034Z,13.69
2022-07-27T05:08:53.017Z,13.72
2022-07-27T05:09:53.002Z,13.72
2022-07-27T05:10:53.014Z,13.75
2022-07-27T05:11:53.010Z,13.76
2022-07-27T05:12:53.000Z,13.80
2022-07-27T05:13:52.953Z,13.80
2022-07-27T05:14:52.953Z,13.76
2022-07-27T05:15:54.865Z,13.72
2022-07-27T05:16:52.983Z,13.75
2022-07-27T05:17:52.922Z,13.80
2022-07-27T05:18:52.909Z,13.83
2022-07-27T05:19:52.900Z,13.88
2022-07-27T05:20:52.903Z,13.91
2022-07-27T05:21:52.900Z,13.94
2022-07-27T05:22:52.886Z,14.01
2022-07-27T05:23:52.843Z,14.04
2022-07-27T05:24:52.852Z,14.11
2022-07-27T05:25:52.842Z,14.17
2022-07-27T05:26:52.835Z,14.23
2022-07-27T05:27:54.559Z,14.29
2022-07-27T05:28:52.794Z,14.34
2022-07-27T05:29:52.784Z,14.30
2022-07-27T05:30:52.807Z,14.34
2022-07-27T05:31:52.815Z,14.35
2022-07-27T05:32:52.754Z,14.39
2022-07-27T05:33:57.903Z,14.42
2022-07-27T05:34:52.745Z,14.42
2022-07-27T05:35:52.753Z,14.46
2022-07-27T05:36:52.711Z,14.49
2022-07-27T05:37:52.723Z,14.53
2022-07-27T05:38:52.684Z,14.57
2022-07-27T05:39:52.673Z,14.63
2022-07-27T05:40:52.675Z,14.66
2022-07-27T05:41:52.671Z,14.72
2022-07-27T05:42:52.648Z,14.78
2022-07-27T05:43:52.648Z,14.83
2022-07-27T05:44:52.623Z,14.87
2022-07-27T05:45:52.716Z,14.97
2022-07-27T05:46:52.589Z,15.01
2022-07-27T05:47:52.626Z,15.07
2022-07-27T05:48:52.586Z,15.15
2022-07-27T05:49:52.562Z,15.18
2022-07-27T05:50:52.587Z,15.23
2022-07-27T05:51:52.601Z,15.28
2022-07-27T05:52:52.522Z,15.37
2022-07-27T05:53:52.517Z,15.48
2022-07-27T05:54:52.527Z,15.60
2022-07-27T05:55:58.940Z,15.62
2022-07-27T05:56:52.495Z,15.60
2022-07-27T05:57:52.468Z,15.59
2022-07-27T05:58:52.483Z,15.60
2022-07-27T05:59:52.491Z,15.60
2022-07-27T06:00:52.510Z,15.66
2022-07-27T06:01:52.423Z,15.67
2022-07-27T06:02:52.416Z,15.74
2022-07-27T06:03:52.483Z,15.78
2022-07-27T06:04:52.382Z,15.81
2022-07-27T06:05:52.421Z,15.85
2022-07-27T06:06:52.362Z,15.88
2022-07-27T06:07:52.362Z,15.91
2022-07-27T06:08:52.368Z,15.96
2022-07-27T06:09:52.330Z,15.98
2022-07-27T06:10:52.338Z,16.01
2022-07-27T06:11:52.310Z,16.04
2022-07-27T06:12:52.310Z,16.07
2022-07-27T06:13:52.303Z,16.11
2022-07-27T06:14:52.284Z,16.11
2022-07-27T06:15:52.300Z,16.13
2022-07-27T06:16:52.297Z,16.14
2022-07-27T06:17:52.250Z,16.11
2022-07-27T06:18:52.237Z,16.11
2022-07-27T06:19:52.212Z,16.13
2022-07-27T06:20:52.218Z,16.14
2022-07-27T06:21:53.982Z,16.14
2022-07-27T06:22:52.206Z,16.16
2022-07-27T06:23:52.174Z,16.16
2022-07-27T06:24:52.159Z,16.17
2022-07-27T06:25:52.187Z,16.16
2022-07-27T06:26:52.158Z,16.16
2022-07-27T06:27:52.170Z,16.18
2022-07-27T06:28:52.125Z,16.17
2022-07-27T06:29:52.106Z,16.13
2022-07-27T06:30:52.147Z,16.11
2022-07-27T06:31:58.736Z,16.13
2022-07-27T06:32:52.075Z,16.16
2022-07-27T06:33:52.205Z,16.16
2022-07-27T06:34:52.064Z,16.16
2022-07-27T06:35:52.072Z,16.18
2022-07-27T06:36:52.026Z,16.26
2022-07-27T06:37:52.056Z,16.29
2022-07-27T06:38:52.021Z,16.36
2022-07-27T06:39:52.002Z,16.41
2022-07-27T06:40:52.016Z,16.42
2022-07-27T06:41:56.264Z,16.48
2022-07-27T06:42:51.986Z,16.65
2022-07-27T06:43:51.977Z,16.75
2022-07-27T06:44:51.954Z,16.78
2022-07-27T06:45:51.964Z,16.82
2022-07-27T06:46:51.954Z,16.85
2022-07-27T06:47:51.917Z,16.91
2022-07-27T06:48:51.985Z,16.98
2022-07-27T06:49:51.892Z,17.02
2022-07-27T06:50:51.910Z,17.07
2022-07-27T06:51:51.962Z,17.12
2022-07-27T06:52:51.858Z,17.14
2022-07-27T06:53:51.864Z,17.15
2022-07-27T06:54:51.841Z,17.18
2022-07-27T06:55:51.849Z,17.17
2022-07-27T06:56:51.809Z,17.15
2022-07-27T06:57:51.805Z,17.18
2022-07-27T06:58:51.816Z,17.21
2022-07-27T06:59:51.785Z,17.32
2022-07-27T07:00:51.855Z,17.43
2022-07-27T07:01:51.758Z,17.46
2022-07-27T07:02:51.773Z,17.39
2022-07-27T07:03:51.834Z,17.30
2022-07-27T07:04:51.715Z,17.39
2022-07-27T07:05:51.808Z,17.39
2022-07-27T07:06:51.698Z,17.42
2022-07-27T07:07:51.700Z,17.43
2022-07-27T07:08:51.682Z,17.47
2022-07-27T07:09:51.680Z,17.62
2022-07-27T07:10:51.693Z,17.57
2022-07-27T07:11:51.677Z,17.62
2022-07-27T07:12:51.647Z,17.66
2022-07-27T07:13:51.634Z,17.65
2022-07-27T07:14:51.616Z,17.62
2022-07-27T07:15:51.716Z,17.62
2022-07-27T07:16:51.593Z,17.62
2022-07-27T07:17:51.607Z,17.70
2022-07-27T07:18:52.620Z,17.71
2022-07-27T07:19:51.555Z,17.71
2022-07-27T07:20:51.558Z,17.79
2022-07-27T07:21:51.572Z,17.92
2022-07-27T07:22:51.567Z,17.98
2022-07-27T07:23:51.509Z,18.04
2022-07-27T07:24:51.511Z,18.10
2022-07-27T07:25:51.540Z,18.02
2022-07-27T07:26:51.484Z,18.05
2022-07-27T07:27:51.489Z,18.09
2022-07-27T07:28:51.467Z,18.17
2022-07-27T07:29:51.442Z,18.32
2022-07-27T07:30:51.484Z,18.47
2022-07-27T07:31:51.471Z,18.49
2022-07-27T07:32:51.406Z,18.59
2022-07-27T07:33:51.408Z,18.75
2022-07-27T07:34:51.393Z,18.84
2022-07-27T07:36:12.287Z,18.97
2022-07-27T07:36:51.372Z,18.90
2022-07-27T07:37:51.371Z,18.90
2022-07-27T07:38:51.355Z,19.02
2022-07-27T07:39:51.338Z,19.16
2022-07-27T07:40:51.370Z,19.28
2022-07-27T07:41:51.306Z,19.39
2022-07-27T07:42:51.310Z,19.39
2022-07-27T07:43:51.293Z,19.35
2022-07-27T07:44:51.302Z,19.28
2022-07-27T07:45:52.155Z,19.13
2022-07-27T07:46:51.263Z,18.90
2022-07-27T07:47:51.255Z,18.86
2022-07-27T07:48:51.322Z,18.87
2022-07-27T07:49:51.232Z,18.87
2022-07-27T07:50:51.348Z,18.82
2022-07-27T07:51:51.199Z,18.82
2022-07-27T07:52:51.189Z,18.86
2022-07-27T07:53:51.171Z,18.87
2022-07-27T07:54:51.187Z,18.91
2022-07-27T07:55:51.171Z,19.01
2022-07-27T07:56:51.152Z,19.01
2022-07-27T07:57:51.141Z,18.96
2022-07-27T07:58:51.125Z,18.96
2022-07-27T07:59:51.121Z,18.94
2022-07-27T08:00:51.114Z,19.10
2022-07-27T08:01:51.160Z,19.13
2022-07-27T08:02:51.140Z,19.02
2022-07-27T08:03:51.505Z,18.96
2022-07-27T08:04:51.058Z,18.94
2022-07-27T08:05:51.138Z,18.97
2022-07-27T08:06:51.057Z,19.13
2022-07-27T08:07:51.056Z,19.10
2022-07-27T08:08:51.047Z,19.20
2022-07-27T08:09:51.042Z,19.31
2022-07-27T08:10:51.023Z,19.46
2022-07-27T08:11:50.969Z,19.62
2022-07-27T08:12:51.011Z,19.79
2022-07-27T08:13:50.958Z,19.98
2022-07-27T08:14:51.012Z,20.16
2022-07-27T08:15:51.008Z,20.33
2022-07-27T08:16:50.928Z,20.46
2022-07-27T08:17:50.926Z,20.35
2022-07-27T08:18:50.903Z,20.22
2022-07-27T08:19:50.904Z,20.10
2022-07-27T08:20:50.889Z,19.98
2022-07-27T08:21:50.865Z,19.95
2022-07-27T08:22:50.873Z,20.07
2022-07-27T08:23:50.861Z,20.05
2022-07-27T08:24:50.865Z,19.89
2022-07-27T08:25:50.854Z,19.92
2022-07-27T08:26:50.829Z,20.01
2022-07-27T08:27:50.837Z,20.22
2022-07-27T08:28:50.812Z,20.30
2022-07-27T08:29:51.798Z,20.31
2022-07-27T08:30:50.808Z,20.48
2022-07-27T08:31:52.139Z,20.60
2022-07-27T08:32:50.739Z,20.78
2022-07-27T08:33:50.742Z,21.01
2022-07-27T08:34:50.725Z,21.15
2022-07-27T08:35:50.738Z,21.30
2022-07-27T08:36:50.696Z,21.42
2022-07-27T08:37:50.685Z,21.31
2022-07-27T08:38:50.677Z,21.27
2022-07-27T08:40:38.020Z,21.05
2022-07-27T08:40:50.689Z,20.83
2022-07-27T08:41:50.716Z,20.69
2022-07-27T08:42:50.632Z,20.41
2022-07-27T08:43:50.640Z,20.20
2022-07-27T08:44:50.736Z,20.15
2022-07-27T08:45:50.646Z,20.05
2022-07-27T08:46:50.739Z,20.01
2022-07-27T08:47:50.574Z,19.89
2022-07-27T08:48:50.592Z,19.70
2022-07-27T08:49:50.603Z,19.61
2022-07-27T08:50:50.587Z,19.65
2022-07-27T08:51:50.564Z,19.75
2022-07-27T08:52:50.521Z,19.82
2022-07-27T08:53:54.009Z,19.94
2022-07-27T08:54:50.497Z,19.98
2022-07-27T08:55:50.495Z,20.00
2022-07-27T08:56:50.520Z,20.07
2022-07-27T08:57:50.461Z,20.07
2022-07-27T08:58:50.458Z,20.12
2022-07-27T08:59:50.429Z,20.12
2022-07-27T09:00:50.516Z,20.20
2022-07-27T09:01:50.491Z,20.12
2022-07-27T09:02:50.452Z,19.94
2022-07-27T09:03:50.440Z,20.01
2022-07-27T09:04:50.392Z,20.25
2022-07-27T09:05:50.383Z,20.58
2022-07-27T09:06:54.156Z,20.93
2022-07-27T09:07:50.337Z,21.18
2022-07-27T09:08:53.374Z,21.34
2022-07-27T09:09:50.439Z,21.31
2022-07-27T09:10:50.345Z,21.26
2022-07-27T09:11:50.326Z,21.22
2022-07-27T09:12:50.444Z,21.45
2022-07-27T09:13:50.326Z,21.63
2022-07-27T09:14:53.171Z,21.86
2022-07-27T09:16:16.430Z,21.90
2022-07-27T09:17:45.834Z,21.82
2022-07-27T09:17:52.473Z,21.68
2022-07-27T09:18:50.309Z,21.53
2022-07-27T09:19:50.261Z,21.42
2022-07-27T09:20:50.226Z,21.22
2022-07-27T09:21:50.242Z,21.11
2022-07-27T09:22:50.277Z,20.81
2022-07-27T09:23:50.183Z,20.78
2022-07-27T09:24:50.242Z,20.69
2022-07-27T09:26:03.681Z,20.61
2022-07-27T09:26:50.193Z,20.58
2022-07-27T09:27:50.248Z,20.38
2022-07-27T09:28:50.141Z,20.33
2022-07-27T09:29:50.130Z,20.15
2022-07-27T09:30:50.192Z,20.07
2022-07-27T09:31:50.195Z,20.05
2022-07-27T09:32:52.914Z,20.12
2022-07-27T09:33:50.071Z,20.19
2022-07-27T09:34:50.054Z,20.26
2022-07-27T09:35:50.048Z,20.35
2022-07-27T09:36:50.038Z,20.41
2022-07-27T09:37:50.189Z,20.50
2022-07-27T09:38:54.380Z,20.54
2022-07-27T09:39:50.023Z,20.60
2022-07-27T09:40:49.988Z,20.66
2022-07-27T09:41:50.091Z,20.58
2022-07-27T09:43:05.592Z,20.61
2022-07-27T09:44:30.073Z,20.69
2022-07-27T09:44:53.563Z,20.72
2022-07-27T09:45:51.604Z,20.71
2022-07-27T09:46:50.004Z,20.75
2022-07-27T09:47:49.900Z,20.81
2022-07-27T09:48:49.996Z,20.90
2022-07-27T09:49:49.913Z,20.97
2022-07-27T09:51:01.849Z,21.00
2022-07-27T09:51:59.898Z,21.08
2022-07-27T09:52:49.841Z,21.12
2022-07-27T09:53:49.830Z,21.16
2022-07-27T09:54:49.811Z,21.24
2022-07-27T09:55:49.839Z,21.52
2022-07-27T09:56:49.823Z,21.68
2022-07-27T09:57:49.858Z,21.77
2022-07-27T09:58:49.785Z,21.85
2022-07-27T09:59:49.780Z,21.91
2022-07-27T10:00:49.776Z,21.89
2022-07-27T10:01:54.477Z,21.83
2022-07-27T10:02:49.772Z,21.77
2022-07-27T10:03:49.737Z,21.83
2022-07-27T10:04:49.795Z,21.79
2022-07-27T10:05:49.709Z,21.77
2022-07-27T10:07:02.075Z,21.75
2022-07-27T10:07:49.847Z,21.75
2022-07-27T10:08:49.676Z,21.68
2022-07-27T10:09:49.644Z,21.61
2022-07-27T10:10:49.654Z,21.59
2022-07-27T10:11:49.649Z,21.68
2022-07-27T10:12:54.489Z,21.86
2022-07-27T10:13:49.656Z,22.05
2022-07-27T10:14:49.613Z,22.24
2022-07-27T10:15:49.672Z,22.48
2022-07-27T10:16:49.571Z,22.74
2022-07-27T10:17:49.595Z,22.86
2022-07-27T10:18:50.825Z,22.64
2022-07-27T10:19:49.576Z,22.54
2022-07-27T10:20:49.560Z,22.51
2022-07-27T10:21:49.531Z,22.44
2022-07-27T10:22:49.497Z,22.46
2022-07-27T10:23:49.610Z,22.48
2022-07-27T10:24:53.192Z,22.42
2022-07-27T10:25:49.497Z,22.38
2022-07-27T10:26:49.482Z,22.24
2022-07-27T10:27:49.482Z,22.14
2022-07-27T10:28:49.442Z,21.93
2022-07-27T10:29:49.473Z,21.82
2022-07-27T10:30:54.275Z,21.85
2022-07-27T10:31:49.431Z,21.93
2022-07-27T10:32:49.401Z,21.93
2022-07-27T10:33:49.391Z,22.06
2022-07-27T10:34:49.380Z,22.33
2022-07-27T10:35:49.472Z,22.51
2022-07-27T10:36:49.353Z,22.57
2022-07-27T10:37:49.352Z,22.74
2022-07-27T10:38:49.384Z,22.93
2022-07-27T10:39:49.337Z,22.81
2022-07-27T10:40:49.342Z,22.88
2022-07-27T10:41:49.317Z,23.16
2022-07-27T10:42:54.293Z,23.47
2022-07-27T10:43:49.315Z,23.77
2022-07-27T10:44:49.329Z,24.02
2022-07-27T10:45:50.375Z,24.23
2022-07-27T10:46:49.297Z,24.41
2022-07-27T10:47:49.226Z,24.31
2022-07-27T10:48:49.539Z,24.41
2022-07-27T10:49:49.210Z,24.39
2022-07-27T10:50:49.334Z,24.52
2022-07-27T10:51:49.237Z,24.36
2022-07-27T10:52:49.211Z,24.31
2022-07-27T10:54:11.616Z,24.29
2022-07-27T10:54:53.530Z,24.12
2022-07-27T10:55:49.214Z,24.18
2022-07-27T10:56:49.143Z,24.24
2022-07-27T10:57:49.155Z,24.08
2022-07-27T10:58:49.171Z,23.72
2022-07-27T11:00:54.163Z,23.21
2022-07-27T11:01:49.142Z,23.15
2022-07-27T11:02:49.082Z,22.91
2022-07-27T11:03:49.072Z,22.93
2022-07-27T11:04:49.068Z,22.82
2022-07-27T11:06:30.770Z,22.78
2022-07-27T11:07:22.940Z,22.79
2022-07-27T11:08:18.666Z,22.76
2022-07-27T11:09:08.499Z,22.79
2022-07-27T11:10:03.416Z,22.79
2022-07-27T11:10:49.092Z,22.82
2022-07-27T11:11:48.992Z,22.74
2022-07-27T11:12:49.000Z,22.61
2022-07-27T11:13:48.956Z,22.64
2022-07-27T11:14:48.976Z,22.66
2022-07-27T11:15:48.971Z,22.54
2022-07-27T11:16:55.279Z,22.64
2022-07-27T11:17:58.397Z,23.00
2022-07-27T11:18:53.086Z,23.23
2022-07-27T11:19:48.891Z,23.38
2022-07-27T11:20:48.956Z,23.37
2022-07-27T11:21:48.888Z,23.38
2022-07-27T11:23:51.465Z,23.32
2022-07-27T11:24:48.829Z,23.04
2022-07-27T11:25:48.886Z,22.93
2022-07-27T11:26:48.813Z,22.86
2022-07-27T11:27:48.850Z,22.72
2022-07-27T11:28:48.794Z,22.61
2022-07-27T11:29:48.809Z,22.54
2022-07-27T11:30:48.962Z,22.45
2022-07-27T11:31:57.953Z,22.39
2022-07-27T11:32:48.760Z,22.33
2022-07-27T11:33:48.734Z,22.33
2022-07-27T11:34:48.747Z,22.31
2022-07-27T11:35:48.752Z,22.35
2022-07-27T11:36:48.714Z,22.31
2022-07-27T11:37:48.687Z,22.30
2022-07-27T11:38:48.696Z,22.11
2022-07-27T11:40:20.279Z,21.99
2022-07-27T11:40:57.027Z,21.93
2022-07-27T11:42:08.440Z,21.99
2022-07-27T11:42:48.646Z,21.99
2022-07-27T11:43:48.691Z,21.99
2022-07-27T11:44:48.607Z,22.02
2022-07-27T11:45:48.694Z,22.06
2022-07-27T11:46:48.622Z,22.11
2022-07-27T11:47:48.579Z,22.12
2022-07-27T11:49:48.654Z,22.19
2022-07-27T11:50:48.586Z,22.24
2022-07-27T11:51:48.549Z,22.30
2022-07-27T11:52:48.533Z,22.36
2022-07-27T11:53:48.544Z,22.46
2022-07-27T11:54:48.504Z,22.52
2022-07-27T11:55:48.548Z,22.57
2022-07-27T11:56:48.496Z,22.57
2022-07-27T11:57:48.467Z,22.54
2022-07-27T11:58:48.480Z,22.52
2022-07-27T11:59:48.445Z,22.57
2022-07-27T12:00:48.456Z,22.61
2022-07-27T12:01:48.447Z,22.54
2022-07-27T12:02:48.454Z,22.59
2022-07-27T12:03:48.429Z,22.67
2022-07-27T12:04:48.469Z,22.59
2022-07-27T12:05:48.392Z,22.59
2022-07-27T12:06:48.372Z,22.61
2022-07-27T12:07:48.371Z,22.72
2022-07-27T12:08:48.356Z,22.96
2022-07-27T12:09:48.364Z,23.06
2022-07-27T12:10:48.340Z,23.42
2022-07-27T12:11:48.309Z,23.68
2022-07-27T12:12:48.300Z,23.92
2022-07-27T12:13:48.304Z,23.90
2022-07-27T12:14:48.295Z,23.94
2022-07-27T12:15:48.294Z,23.94
2022-07-27T12:16:48.337Z,23.99
2022-07-27T12:17:48.273Z,24.09
2022-07-27T12:18:48.243Z,24.29
2022-07-27T12:19:48.226Z,24.42
2022-07-27T12:20:48.279Z,24.48
2022-07-27T12:21:48.542Z,24.63
2022-07-27T12:22:48.196Z,24.80
2022-07-27T12:23:48.189Z,25.02
2022-07-27T12:24:48.193Z,25.26
2022-07-27T12:25:48.253Z,25.26
2022-07-27T12:26:48.149Z,25.35
2022-07-27T12:27:48.217Z,25.41
2022-07-27T12:28:48.164Z,25.48
2022-07-27T12:29:48.111Z,25.57
2022-07-27T12:30:48.255Z,25.64
2022-07-27T12:31:48.088Z,25.61
2022-07-27T12:32:51.473Z,25.54
2022-07-27T12:33:48.366Z,25.72
2022-07-27T12:34:48.093Z,25.56
2022-07-27T12:35:48.093Z,25.64
2022-07-27T12:36:48.047Z,25.49
2022-07-27T12:37:48.034Z,25.35
2022-07-27T12:38:48.015Z,25.19
2022-07-27T12:39:48.007Z,24.94
2022-07-27T12:40:48.016Z,24.61
2022-07-27T12:41:48.014Z,24.27
2022-07-27T12:42:47.970Z,24.15
2022-07-27T12:43:47.954Z,24.14
2022-07-27T12:44:48.024Z,24.09
2022-07-27T12:45:48.101Z,24.00
2022-07-27T12:46:47.935Z,23.94
2022-07-27T12:47:47.920Z,23.79
2022-07-27T12:48:47.935Z,23.79
2022-07-27T12:49:47.904Z,23.68
2022-07-27T12:50:47.909Z,23.54
2022-07-27T12:51:47.913Z,23.49
2022-07-27T12:52:49.081Z,23.52
2022-07-27T12:53:47.850Z,23.60
2022-07-27T12:54:47.845Z,23.64
2022-07-27T12:55:47.899Z,23.63